Time;durP1;ratioP1;P1;durP2;ratioP2;P2;SDS_P1;SDS_P2;PMS_P1;PMS_P2;Temp;Humidity;BMP_temperature;BMP_pressure;BME280_temperature;BME280_humidity;BME280_pressure;Samples;Min_cycle;Max_cycle;Signal;HPM_P1;HPM_P2
2023/03/22 00:04:00;;;;;;;37.13;24.93;;;8.70;99.90;;;;;;8303246;28;20212;-82
2023/03/22 00:08:04;;;;;;;38.73;26.50;;;8.70;99.90;;;;;;8304552;28;20190;-83
2023/03/22 00:12:05;;;;;;;45.80;27.63;;;8.70;99.90;;;;;;8308275;28;20194;-82
2023/03/22 00:16:06;;;;;;;39.77;27.10;;;8.70;99.90;;;;;;8307087;28;20202;-82
2023/03/22 00:20:07;;;;;;;34.23;24.40;;;8.70;85.80;;;;;;8302834;28;20214;-83
2023/03/22 00:24:11;;;;;;;37.97;25.57;;;8.70;32.90;;;;;;8312107;28;20214;-83
2023/03/22 00:28:13;;;;;;;41.90;28.47;;;8.70;44.10;;;;;;8301973;28;20213;-82
2023/03/22 00:32:15;;;;;;;43.43;28.47;;;8.70;75.30;;;;;;8310075;28;20262;-83
2023/03/22 00:36:16;;;;;;;37.53;26.10;;;8.70;99.90;;;;;;8308672;28;20207;-82
2023/03/22 00:40:17;;;;;;;35.77;24.80;;;8.60;1.00;;;;;;8306587;28;20213;-82
2023/03/22 00:44:18;;;;;;;36.47;25.13;;;8.60;20.10;;;;;;8325018;28;20264;-82
2023/03/22 00:48:19;;;;;;;34.90;23.87;;;8.50;99.90;;;;;;8313126;28;20195;-83
2023/03/22 00:52:20;;;;;;;49.03;31.30;;;8.50;99.90;;;;;;8317473;28;20187;-82
2023/03/22 00:56:21;;;;;;;47.80;29.70;;;8.50;99.90;;;;;;8324633;28;20205;-84
2023/03/22 01:00:22;;;;;;;44.43;29.93;;;8.40;1.00;;;;;;8336529;28;20190;-85
2023/03/22 01:04:24;;;;;;;39.87;27.27;;;8.40;1.00;;;;;;8321679;28;20190;-84
2023/03/22 01:08:31;;;;;;;40.00;26.57;;;8.30;1.00;;;;;;8311875;28;20401;-81
2023/03/22 01:12:32;;;;;;;52.60;30.87;;;8.20;99.90;;;;;;8302216;28;20187;-83
2023/03/22 01:16:33;;;;;;;50.47;32.43;;;8.20;2.60;;;;;;8307503;28;20252;-83
2023/03/22 01:20:35;;;;;;;56.30;34.40;;;8.20;1.00;;;;;;8305961;28;20210;-83
2023/03/22 01:24:36;;;;;;;52.43;33.53;;;8.30;99.90;;;;;;8298887;28;20291;-82
2023/03/22 01:28:39;;;;;;;44.47;30.43;;;8.40;99.90;;;;;;8304435;28;20190;-83
2023/03/22 01:32:40;;;;;;;37.47;25.97;;;8.40;1.00;;;;;;8306313;28;20217;-83
2023/03/22 01:36:41;;;;;;;36.43;24.63;;;8.50;1.00;;;;;;8300175;28;20214;-82
2023/03/22 01:40:41;;;;;;;39.00;24.87;;;8.50;99.90;;;;;;8303223;28;20206;-82
2023/03/22 01:44:43;;;;;;;37.37;25.57;;;8.50;95.20;;;;;;8301761;28;20187;-82
2023/03/22 01:48:45;;;;;;;33.73;24.77;;;8.60;99.90;;;;;;8305058;28;20198;-83
2023/03/22 01:52:48;;;;;;;35.60;24.73;;;8.60;99.90;;;;;;8303111;28;20195;-83
2023/03/22 01:56:49;;;;;;;31.87;23.33;;;8.60;1.00;;;;;;8302956;28;20222;-81
2023/03/22 02:00:51;;;;;;;29.87;21.43;;;8.60;99.90;;;;;;8300379;28;20214;-82
2023/03/22 02:04:56;;;;;;;24.80;19.20;;;8.60;1.00;;;;;;8308615;28;20186;-81
2023/03/22 02:09:01;;;;;;;27.80;18.90;;;8.70;1.00;;;;;;8314026;28;20182;-81
2023/03/22 02:13:29;;;;;;;23.57;18.13;;;8.70;1.00;;;;;;8313251;28;20191;-81
2023/03/22 02:17:50;;;;;;;26.33;17.70;;;8.70;99.90;;;;;;8312209;28;20206;-82
2023/03/22 02:22:13;;;;;;;22.47;16.50;;;8.70;1.00;;;;;;8303863;28;20217;-82
2023/03/22 02:26:38;;;;;;;22.17;17.00;;;8.70;99.90;;;;;;8303558;28;20184;-82
2023/03/22 02:31:19;;;;;;;21.73;16.47;;;8.70;1.00;;;;;;8306450;28;20187;-82
2023/03/22 02:35:41;;;;;;;20.93;16.50;;;8.70;99.90;;;;;;8209245;28;20279;-82
2023/03/22 02:40:22;;;;;;;22.97;18.00;;;8.70;99.90;;;;;;8310936;28;20188;-83
2023/03/22 02:44:48;;;;;;;21.97;16.77;;;8.80;1.00;;;;;;8296048;28;20759;-82
2023/03/22 02:49:21;;;;;;;21.43;16.20;;;8.80;1.00;;;;;;8306800;28;20197;-82
2023/03/22 02:53:45;;;;;;;18.70;15.80;;;8.80;1.00;;;;;;8302635;28;20186;-82
2023/03/22 02:58:09;;;;;;;18.30;15.80;;;8.80;46.10;;;;;;8301491;28;20189;-82
2023/03/22 03:02:16;;;;;;;21.10;17.37;;;8.80;99.90;;;;;;8304368;28;20217;-83
2023/03/22 03:06:20;;;;;;;21.43;17.30;;;8.80;99.90;;;;;;8308878;28;20195;-82
2023/03/22 03:10:22;;;;;;;21.20;17.60;;;8.80;99.90;;;;;;8303560;28;20181;-83
2023/03/22 03:14:29;;;;;;;19.27;15.87;;;8.80;99.90;;;;;;8307868;28;20188;-82
2023/03/22 03:18:39;;;;;;;19.60;16.93;;;8.80;99.90;;;;;;8302928;28;20195;-81
2023/03/22 03:22:57;;;;;;;18.10;15.63;;;8.70;99.90;;;;;;8300352;28;20211;-83
2023/03/22 03:27:04;;;;;;;20.90;16.67;;;8.70;99.90;;;;;;8306155;28;20186;-83
2023/03/22 03:31:19;;;;;;;22.97;17.87;;;8.70;99.90;;;;;;8301834;28;20189;-83
2023/03/22 03:35:24;;;;;;;23.87;18.00;;;8.70;99.90;;;;;;8306039;28;20286;-82
2023/03/22 03:39:28;;;;;;;23.23;18.77;;;8.70;99.90;;;;;;8310827;28;20183;-82
2023/03/22 03:43:30;;;;;;;20.20;16.73;;;8.80;99.90;;;;;;8299071;28;20218;-82
2023/03/22 03:47:32;;;;;;;19.83;16.47;;;8.70;99.90;;;;;;8298999;28;20184;-82
2023/03/22 03:51:49;;;;;;;21.80;18.03;;;8.60;99.90;;;;;;8311158;28;20286;-82
2023/03/22 03:55:50;;;;;;;19.63;17.10;;;8.60;99.90;;;;;;8298294;28;20209;-82
2023/03/22 03:59:51;;;;;;;18.23;15.53;;;8.50;99.90;;;;;;8298836;28;20195;-82
2023/03/22 04:03:54;;;;;;;19.33;15.97;;;8.30;99.90;;;;;;8307980;28;20331;-83
2023/03/22 04:07:54;;;;;;;18.80;15.90;;;8.10;99.90;;;;;;8302788;28;20236;-82
2023/03/22 04:11:56;;;;;;;21.47;16.67;;;7.90;99.90;;;;;;8299740;28;20179;-83
2023/03/22 04:16:00;;;;;;;17.27;14.73;;;7.70;99.90;;;;;;8304685;28;20201;-83
2023/03/22 04:20:03;;;;;;;18.10;14.87;;;7.50;99.90;;;;;;8304765;28;20199;-83
2023/03/22 04:24:04;;;;;;;18.07;15.27;;;7.30;99.90;;;;;;8308124;28;20298;-83
2023/03/22 04:28:05;;;;;;;16.10;13.73;;;7.10;99.90;;;;;;8322703;28;20190;-82
2023/03/22 04:32:05;;;;;;;19.67;14.87;;;6.90;99.90;;;;;;8332554;28;20183;-83
2023/03/22 04:36:09;;;;;;;20.80;17.57;;;6.70;99.90;;;;;;8318343;28;20211;-83
2023/03/22 04:40:15;;;;;;;23.07;17.87;;;6.60;99.90;;;;;;8319055;28;20188;-82
2023/03/22 04:44:16;;;;;;;23.57;16.90;;;6.50;99.90;;;;;;8312677;28;20573;-81
2023/03/22 04:48:19;;;;;;;21.23;17.50;;;6.40;99.90;;;;;;8302851;28;20187;-83
2023/03/22 04:52:20;;;;;;;20.30;16.37;;;6.20;99.90;;;;;;8300551;28;20232;-83
2023/03/22 04:56:21;;;;;;;20.80;16.97;;;6.20;99.90;;;;;;8299896;28;20230;-82
2023/03/22 05:00:22;;;;;;;20.23;16.30;;;6.00;99.90;;;;;;8304836;28;20185;-82
2023/03/22 05:04:22;;;;;;;23.73;17.60;;;6.00;99.90;;;;;;8305242;28;20241;-80
2023/03/22 05:08:25;;;;;;;24.07;17.87;;;5.90;99.90;;;;;;8316333;28;20244;-80
2023/03/22 05:12:25;;;;;;;24.07;18.97;;;5.90;99.90;;;;;;8306383;28;20253;-78
2023/03/22 05:16:26;;;;;;;25.17;19.47;;;6.00;99.90;;;;;;8310365;28;20186;-78
2023/03/22 05:20:27;;;;;;;29.10;21.27;;;6.10;99.90;;;;;;8305469;28;20442;-78
2023/03/22 05:24:29;;;;;;;28.50;18.97;;;6.30;99.90;;;;;;8304602;28;20187;-78
2023/03/22 05:28:30;;;;;;;27.67;19.67;;;6.40;99.90;;;;;;8307020;28;20179;-78
2023/03/22 05:32:31;;;;;;;26.33;18.80;;;6.60;99.90;;;;;;8302762;28;20262;-78
2023/03/22 05:36:35;;;;;;;25.33;19.37;;;6.80;99.90;;;;;;8310292;28;20199;-78
2023/03/22 05:40:36;;;;;;;27.97;21.23;;;7.00;99.90;;;;;;8313708;28;20186;-78
2023/03/22 05:44:36;;;;;;;28.90;21.50;;;7.10;99.90;;;;;;8304959;28;20226;-78
2023/03/22 05:48:38;;;;;;;29.23;21.63;;;7.40;99.90;;;;;;8315198;28;20224;-78
2023/03/22 05:52:41;;;;;;;32.00;24.10;;;7.60;99.90;;;;;;8307567;28;20191;-78
2023/03/22 05:56:43;;;;;;;30.87;22.77;;;7.80;99.90;;;;;;8308508;28;20207;-78
2023/03/22 06:00:48;;;;;;;26.93;20.00;;;8.00;99.90;;;;;;8312461;28;20183;-78
2023/03/22 06:04:50;;;;;;;30.90;23.83;;;8.20;99.90;;;;;;8303679;28;20198;-78
2023/03/22 06:08:51;;;;;;;31.83;23.33;;;8.30;99.90;;;;;;8306751;28;20189;-78
2023/03/22 06:12:52;;;;;;;31.60;23.07;;;8.50;99.90;;;;;;8306829;28;20194;-78
2023/03/22 06:16:53;;;;;;;33.90;25.93;;;8.70;99.90;;;;;;8307333;28;20194;-78
2023/03/22 06:20:56;;;;;;;31.63;25.63;;;9.00;99.90;;;;;;8305972;28;20245;-78
2023/03/22 06:24:57;;;;;;;34.27;26.33;;;9.10;99.90;;;;;;8313496;28;20183;-78
2023/03/22 06:28:58;;;;;;;30.43;23.17;;;9.30;99.90;;;;;;8305753;28;20268;-78
2023/03/22 06:33:03;;;;;;;29.40;23.97;;;9.60;99.90;;;;;;8307382;28;20237;-78
2023/03/22 06:37:06;;;;;;;30.67;25.20;;;9.70;99.90;;;;;;8308694;28;20203;-78
2023/03/22 06:41:06;;;;;;;27.03;22.10;;;10.00;99.90;;;;;;8302191;28;20206;-78
2023/03/22 06:45:08;;;;;;;27.53;23.00;;;10.20;99.90;;;;;;8302161;28;20232;-78
2023/03/22 06:49:09;;;;;;;29.53;24.67;;;10.50;99.90;;;;;;8301974;28;20183;-77
2023/03/22 06:53:10;;;;;;;29.10;23.57;;;10.60;99.90;;;;;;8309618;28;20203;-77
2023/03/22 06:57:11;;;;;;;25.33;21.47;;;10.80;99.90;;;;;;8305822;28;20492;-78
2023/03/22 07:01:12;;;;;;;25.67;21.90;;;11.00;99.90;;;;;;8295976;28;20321;-78
2023/03/22 07:05:13;;;;;;;24.93;20.27;;;11.20;99.90;;;;;;8306915;28;20179;-78
2023/03/22 07:09:14;;;;;;;21.53;18.97;;;11.30;99.90;;;;;;8307916;28;20196;-78
2023/03/22 07:13:15;;;;;;;19.70;17.50;;;11.40;99.90;;;;;;8310598;28;20189;-78
2023/03/22 07:17:15;;;;;;;22.63;18.30;;;11.40;99.90;;;;;;8303092;28;20237;-78
2023/03/22 07:21:16;;;;;;;19.57;17.47;;;11.50;99.90;;;;;;8303803;28;20221;-78
2023/03/22 07:25:17;;;;;;;21.13;17.17;;;11.50;99.90;;;;;;8308470;28;20190;-78
2023/03/22 07:29:18;;;;;;;20.40;17.33;;;11.70;99.90;;;;;;8310884;28;20178;-78
2023/03/22 07:33:19;;;;;;;17.80;15.63;;;11.80;99.90;;;;;;8303378;28;20197;-79
2023/03/22 07:37:20;;;;;;;18.20;16.30;;;12.10;19.70;;;;;;8319611;28;20210;-79
2023/03/22 07:41:23;;;;;;;16.93;15.13;;;12.30;99.90;;;;;;8308534;28;20315;-79
2023/03/22 07:45:24;;;;;;;16.60;14.60;;;12.60;99.90;;;;;;8314649;28;20182;-78
2023/03/22 07:49:26;;;;;;;18.07;15.23;;;12.80;99.90;;;;;;8319583;28;20179;-78
2023/03/22 07:53:26;;;;;;;17.07;15.27;;;13.00;1.00;;;;;;8342154;28;20178;-78
2023/03/22 07:57:27;;;;;;;19.03;15.07;;;13.00;1.00;;;;;;8348516;28;20215;-78
2023/03/22 08:01:28;;;;;;;18.00;14.73;;;13.20;1.00;;;;;;8348698;28;20210;-78
2023/03/22 08:05:29;;;;;;;16.23;13.73;;;13.30;1.00;;;;;;8345930;28;20194;-77
2023/03/22 08:09:30;;;;;;;16.93;14.10;;;13.40;1.00;;;;;;8337368;28;20190;-77
2023/03/22 08:13:31;;;;;;;20.63;15.63;;;13.30;1.00;;;;;;8308153;28;20350;-77
2023/03/22 08:17:32;;;;;;;16.43;13.00;;;13.20;99.90;;;;;;8303145;28;20190;-78
2023/03/22 08:21:33;;;;;;;16.07;13.53;;;13.00;1.00;;;;;;8304204;28;20202;-78
2023/03/22 08:25:34;;;;;;;19.73;14.87;;;12.90;1.00;;;;;;8305089;28;20215;-78
2023/03/22 08:29:36;;;;;;;15.03;13.27;;;13.00;1.00;;;;;;8308517;28;20187;-78
2023/03/22 08:33:37;;;;;;;16.00;13.47;;;13.30;1.00;;;;;;8304006;28;20293;-78
2023/03/22 08:37:38;;;;;;;14.90;13.27;;;13.60;99.90;;;;;;8307592;28;20293;-78
2023/03/22 08:41:39;;;;;;;12.17;10.80;;;13.90;99.90;;;;;;8299041;28;20219;-78
2023/03/22 08:45:40;;;;;;;10.43;9.43;;;14.00;99.90;;;;;;8306335;28;20233;-78
2023/03/22 08:49:42;;;;;;;12.20;9.23;;;13.90;99.90;;;;;;8298195;28;20194;-78
2023/03/22 08:53:42;;;;;;;12.13;9.90;;;13.60;99.90;;;;;;8309773;28;20195;-78
2023/03/22 08:57:43;;;;;;;11.47;9.10;;;13.50;99.90;;;;;;8301775;28;20297;-78
2023/03/22 09:01:44;;;;;;;10.57;8.13;;;13.60;99.90;;;;;;8299784;28;20217;-78
2023/03/22 09:05:45;;;;;;;10.53;8.20;;;13.90;99.90;;;;;;8305177;28;20233;-78
2023/03/22 09:09:46;;;;;;;9.63;8.00;;;13.90;99.90;;;;;;8325341;28;20186;-78
2023/03/22 09:13:48;;;;;;;9.77;7.10;;;14.10;99.90;;;;;;8315622;28;20213;-78
2023/03/22 09:17:49;;;;;;;10.33;7.77;;;14.30;99.90;;;;;;8319201;28;20206;-78
2023/03/22 09:21:49;;;;;;;7.57;6.60;;;14.30;99.90;;;;;;8315682;28;20217;-78
2023/03/22 09:25:50;;;;;;;9.87;6.63;;;14.30;99.90;;;;;;8317323;28;20496;-78
2023/03/22 09:29:52;;;;;;;10.00;7.00;;;14.40;99.90;;;;;;8320863;28;20186;-79
2023/03/22 09:33:52;;;;;;;8.50;6.83;;;14.60;99.90;;;;;;8321569;28;20285;-78
2023/03/22 09:37:54;;;;;;;8.73;6.90;;;14.60;99.90;;;;;;8315504;28;20191;-78
2023/03/22 09:42:02;;;;;;;9.40;6.60;;;14.60;99.90;;;;;;8317212;28;20221;-78
2023/03/22 09:46:07;;;;;;;10.90;7.80;;;14.60;99.90;;;;;;8309986;28;20191;-78
2023/03/22 09:50:14;;;;;;;9.07;6.50;;;14.70;99.90;;;;;;8308297;28;20217;-78
2023/03/22 09:54:20;;;;;;;9.10;6.93;;;15.00;99.90;;;;;;8322163;28;20288;-78
2023/03/22 09:58:28;;;;;;;10.40;7.07;;;15.20;99.20;;;;;;8315425;28;20186;-78
2023/03/22 10:02:55;;;;;;;9.83;7.60;;;15.50;92.40;;;;;;8312953;28;20233;-78
2023/03/22 10:07:26;;;;;;;8.20;6.40;;;15.80;66.00;;;;;;8315339;28;20240;-78
2023/03/22 10:11:36;;;;;;;8.20;6.17;;;16.10;68.60;;;;;;8319085;28;20229;-79
2023/03/22 10:15:38;;;;;;;6.73;5.67;;;16.40;41.10;;;;;;8313122;28;20213;-78
2023/03/22 10:20:07;;;;;;;7.00;5.70;;;16.60;44.40;;;;;;8310153;28;20217;-78
2023/03/22 10:24:31;;;;;;;7.90;5.63;;;16.70;28.60;;;;;;8303781;28;20219;-78
2023/03/22 10:28:46;;;;;;;7.43;6.33;;;16.60;15.50;;;;;;8303451;28;20193;-78
2023/03/22 10:32:54;;;;;;;8.10;5.50;;;16.70;14.40;;;;;;8307090;28;20195;-78
2023/03/22 10:36:59;;;;;;;8.80;5.63;;;16.80;25.20;;;;;;8308954;28;20210;-78
2023/03/22 10:41:01;;;;;;;7.43;5.07;;;16.90;28.70;;;;;;8308362;28;20282;-78
2023/03/22 10:45:06;;;;;;;6.83;5.17;;;17.00;10.40;;;;;;8306923;28;20254;-78
2023/03/22 10:49:11;;;;;;;7.50;5.37;;;17.10;4.70;;;;;;8311523;28;20198;-78
2023/03/22 10:53:17;;;;;;;5.83;4.80;;;17.00;10.60;;;;;;8305245;28;20273;-78
2023/03/22 10:57:18;;;;;;;7.00;5.23;;;17.10;21.00;;;;;;8306032;28;20202;-79
2023/03/22 11:01:30;;;;;;;5.97;4.67;;;17.40;1.50;;;;;;8315160;28;20300;-79
2023/03/22 11:05:31;;;;;;;6.40;3.83;;;17.30;1.00;;;;;;8336583;28;20183;-79
2023/03/22 11:09:32;;;;;;;6.27;5.10;;;17.80;1.00;;;;;;8318166;28;20194;-79
2023/03/22 11:13:34;;;;;;;5.57;4.83;;;18.10;1.00;;;;;;8324726;28;20178;-79
2023/03/22 11:17:36;;;;;;;5.50;4.00;;;17.50;1.00;;;;;;8352259;28;20263;-79
2023/03/22 11:21:40;;;;;;;3.53;2.67;;;17.10;1.00;;;;;;8347395;28;20301;-77
2023/03/22 11:25:49;;;;;;;5.93;2.53;;;16.90;1.00;;;;;;8351734;28;20217;-77
2023/03/22 11:29:52;;;;;;;6.77;3.57;;;16.70;1.00;;;;;;8343724;28;20206;-77
2023/03/22 11:33:57;;;;;;;5.40;3.33;;;16.50;1.00;;;;;;8345170;28;20631;-77
2023/03/22 11:38:01;;;;;;;5.90;3.60;;;16.50;1.00;;;;;;8308081;28;20294;-78
2023/03/22 11:42:05;;;;;;;5.43;3.90;;;16.80;1.00;;;;;;8301711;28;20241;-79
2023/03/22 11:46:07;;;;;;;5.87;3.63;;;16.90;1.00;;;;;;8300872;28;20195;-79
2023/03/22 11:50:24;;;;;;;5.00;3.10;;;17.10;1.00;;;;;;8306485;28;20196;-78
2023/03/22 11:54:34;;;;;;;4.43;3.57;;;17.40;1.00;;;;;;8302945;28;20205;-79
2023/03/22 11:58:41;;;;;;;3.50;3.10;;;17.60;1.00;;;;;;8321827;28;20195;-78
2023/03/22 12:03:12;;;;;;;4.60;3.40;;;17.90;1.00;;;;;;8310061;28;20274;-79
2023/03/22 12:07:18;;;;;;;4.00;3.60;;;18.30;1.00;;;;;;8299550;28;20257;-79
2023/03/22 12:11:45;;;;;;;3.27;2.60;;;18.60;1.00;;;;;;8310409;28;20280;-79
2023/03/22 12:15:57;;;;;;;5.30;3.10;;;18.90;1.00;;;;;;8301728;28;20194;-79
2023/03/22 12:20:07;;;;;;;4.43;2.70;;;18.90;1.00;;;;;;8301530;28;20226;-79
2023/03/22 12:24:27;;;;;;;4.07;2.90;;;18.60;1.00;;;;;;8308328;28;20434;-77
2023/03/22 12:28:55;;;;;;;4.67;2.73;;;18.20;1.00;;;;;;8303982;28;20179;-78
2023/03/22 12:33:16;;;;;;;3.77;2.40;;;18.00;1.00;;;;;;8302514;28;20273;-78
2023/03/22 12:37:24;;;;;;;3.87;3.00;;;18.50;1.00;;;;;;8301762;28;20207;-78
2023/03/22 12:41:33;;;;;;;4.07;2.40;;;18.50;1.00;;;;;;8302138;28;20292;-78
2023/03/22 12:45:52;;;;;;;2.63;1.73;;;18.50;1.00;;;;;;8297998;28;20229;-77
2023/03/22 12:49:58;;;;;;;3.57;2.20;;;18.70;1.00;;;;;;8307539;28;20217;-78
2023/03/22 12:53:59;;;;;;;2.33;1.83;;;18.80;1.00;;;;;;8302311;28;20199;-78
2023/03/22 12:58:01;;;;;;;4.30;1.93;;;18.60;1.00;;;;;;8307238;28;20179;-78
2023/03/22 13:02:14;;;;;;;4.70;2.00;;;18.70;1.00;;;;;;8306533;28;20270;-78
2023/03/22 13:06:56;;;;;;;3.03;1.97;;;18.80;1.00;;;;;;8301102;28;20179;-78
2023/03/22 13:10:58;;;;;;;2.63;1.87;;;18.20;1.00;;;;;;8299472;28;20572;-78
2023/03/22 13:15:29;;;;;;;2.17;1.50;;;17.80;1.00;;;;;;8298362;28;20183;-78
2023/03/22 13:19:36;;;;;;;2.60;2.10;;;18.00;1.00;;;;;;8297295;28;20197;-78
2023/03/22 13:24:08;;;;;;;4.73;1.90;;;18.00;1.00;;;;;;8303498;28;20617;-78
2023/03/22 13:28:28;;;;;;;1.47;1.37;;;17.90;1.00;;;;;;8299393;28;20182;-78
2023/03/22 13:32:32;;;;;;;3.30;1.67;;;18.00;1.00;;;;;;8306973;28;20317;-78
2023/03/22 13:36:33;;;;;;;2.63;2.23;;;18.10;1.00;;;;;;8306275;28;20258;-78
2023/03/22 13:40:38;;;;;;;2.13;1.67;;;18.10;1.00;;;;;;8309295;28;20179;-78
2023/03/22 13:44:44;;;;;;;2.27;1.40;;;18.10;1.00;;;;;;8303138;28;20222;-78
2023/03/22 13:48:49;;;;;;;4.20;1.30;;;18.30;1.00;;;;;;8300909;28;20175;-78
2023/03/22 13:52:56;;;;;;;2.40;1.43;;;18.20;1.00;;;;;;8296960;28;20541;-78
2023/03/22 13:57:01;;;;;;;2.20;1.50;;;18.10;1.00;;;;;;8311987;28;20205;-78
2023/03/22 14:01:30;;;;;;;1.63;1.20;;;18.20;1.00;;;;;;8312238;28;20237;-78
2023/03/22 14:05:36;;;;;;;2.43;1.77;;;18.40;1.00;;;;;;8312793;28;20263;-77
2023/03/22 14:10:04;;;;;;;2.30;1.40;;;18.60;1.00;;;;;;8306527;28;20183;-77
2023/03/22 14:14:12;;;;;;;2.07;1.47;;;18.50;1.00;;;;;;8308411;28;20186;-78
2023/03/22 14:18:32;;;;;;;3.00;1.30;;;18.50;1.00;;;;;;8305482;28;20231;-78
2023/03/22 14:22:37;;;;;;;2.17;1.17;;;18.60;1.00;;;;;;8304343;28;20210;-78
2023/03/22 14:26:42;;;;;;;1.10;1.00;;;18.60;1.00;;;;;;8306046;28;20393;-78
2023/03/22 14:30:43;;;;;;;2.47;1.00;;;18.60;1.00;;;;;;8309180;28;20626;-78
2023/03/22 14:34:47;;;;;;;1.63;1.13;;;18.60;1.00;;;;;;8314993;28;20309;-78
2023/03/22 14:38:50;;;;;;;2.03;0.80;;;18.50;1.00;;;;;;8306393;28;20253;-78
2023/03/22 14:42:51;;;;;;;1.47;0.90;;;18.40;1.00;;;;;;8308395;28;20226;-78
2023/03/22 14:47:03;;;;;;;1.40;0.80;;;18.20;1.00;;;;;;8323668;28;20199;-79
2023/03/22 14:51:35;;;;;;;3.13;1.10;;;18.00;1.00;;;;;;8328816;28;20175;-78
2023/03/22 14:55:37;;;;;;;1.03;0.90;;;17.90;1.00;;;;;;8336230;28;20197;-78
2023/03/22 14:59:39;;;;;;;1.70;1.30;;;18.00;1.00;;;;;;8350549;28;20215;-79
2023/03/22 15:03:40;;;;;;;1.43;1.00;;;18.30;1.00;;;;;;8352126;28;20295;-79
2023/03/22 15:07:48;;;;;;;1.70;1.17;;;18.50;1.00;;;;;;8348672;28;20190;-78
2023/03/22 15:11:50;;;;;;;3.70;1.20;;;18.80;1.00;;;;;;8363268;28;20191;-79
2023/03/22 15:15:53;;;;;;;1.73;1.20;;;19.10;1.00;;;;;;8356206;28;20285;-78
2023/03/22 15:19:54;;;;;;;1.93;0.90;;;19.10;1.00;;;;;;8308362;28;20202;-78
2023/03/22 15:24:10;;;;;;;2.60;1.20;;;19.10;1.00;;;;;;8308283;28;20238;-78
2023/03/22 15:28:15;;;;;;;1.60;1.20;;;18.80;1.00;;;;;;8303934;28;20194;-78
2023/03/22 15:32:22;;;;;;;2.93;1.47;;;18.70;1.00;;;;;;8309305;28;20199;-78
2023/03/22 15:36:23;;;;;;;3.77;1.47;;;18.60;1.00;;;;;;8304424;28;20222;-78
2023/03/22 15:40:38;;;;;;;3.80;1.13;;;18.60;1.00;;;;;;8303263;28;20195;-78
2023/03/22 15:44:40;;;;;;;2.47;1.37;;;18.50;1.00;;;;;;8302651;28;20210;-78
2023/03/22 15:48:45;;;;;;;1.40;0.93;;;18.30;1.00;;;;;;8308237;28;20195;-78
2023/03/22 15:52:49;;;;;;;2.43;1.33;;;18.10;1.00;;;;;;8298319;28;20248;-78
2023/03/22 15:56:50;;;;;;;1.47;1.03;;;18.00;1.00;;;;;;8306540;28;20210;-78
2023/03/22 16:00:51;;;;;;;1.37;1.13;;;17.80;1.00;;;;;;8319343;28;20191;-78
2023/03/22 16:04:54;;;;;;;2.50;1.37;;;17.50;1.00;;;;;;8306150;28;20211;-78
2023/03/22 16:08:55;;;;;;;1.30;0.90;;;17.30;1.00;;;;;;8310602;28;20478;-78
2023/03/22 16:12:56;;;;;;;1.50;0.80;;;17.00;1.00;;;;;;8300823;28;20451;-78
2023/03/22 16:16:57;;;;;;;1.70;0.97;;;16.80;1.00;;;;;;8306959;28;20189;-78
2023/03/22 16:20:58;;;;;;;2.10;1.13;;;16.60;1.00;;;;;;8316166;28;20186;-78
2023/03/22 16:25:00;;;;;;;1.97;1.27;;;16.40;1.00;;;;;;8306236;28;20453;-77
2023/03/22 16:29:01;;;;;;;2.73;1.00;;;16.20;1.00;;;;;;8307378;28;20179;-78
2023/03/22 16:33:02;;;;;;;1.30;1.10;;;16.00;1.00;;;;;;8302742;28;20245;-78
2023/03/22 16:37:13;;;;;;;2.33;1.53;;;15.80;1.00;;;;;;8307945;28;20209;-78
2023/03/22 16:41:29;;;;;;;1.20;1.00;;;15.50;1.00;;;;;;8307856;28;20548;-78
2023/03/22 16:45:33;;;;;;;2.57;1.40;;;15.20;1.00;;;;;;8296042;28;20191;-77
2023/03/22 16:49:35;;;;;;;1.70;1.20;;;14.90;1.00;;;;;;8303482;28;20178;-77
2023/03/22 16:53:36;;;;;;;1.70;1.20;;;14.70;7.50;;;;;;8308667;28;20198;-78
2023/03/22 16:57:36;;;;;;;1.70;1.37;;;14.40;18.20;;;;;;8297957;28;20195;-78
2023/03/22 17:01:37;;;;;;;2.63;1.20;;;14.20;43.00;;;;;;8305448;28;20221;-78
2023/03/22 17:05:38;;;;;;;3.17;1.67;;;13.90;80.60;;;;;;8310025;28;20249;-78
2023/03/22 17:09:39;;;;;;;1.97;1.13;;;13.70;99.90;;;;;;8306053;28;20281;-78
2023/03/22 17:13:40;;;;;;;1.97;1.40;;;13.50;99.90;;;;;;8304692;28;20561;-78
2023/03/22 17:17:40;;;;;;;3.17;1.30;;;13.40;99.90;;;;;;8297750;28;20245;-78
2023/03/22 17:21:41;;;;;;;2.33;1.40;;;13.20;99.90;;;;;;8299179;28;20239;-78
2023/03/22 17:25:46;;;;;;;3.27;1.73;;;13.00;99.90;;;;;;8301273;28;20178;-78
2023/03/22 17:29:48;;;;;;;4.43;2.20;;;12.90;99.90;;;;;;8309705;28;20536;-78
2023/03/22 17:33:51;;;;;;;4.03;2.03;;;12.90;99.90;;;;;;8313114;28;20195;-79
2023/03/22 17:37:52;;;;;;;3.77;2.00;;;12.80;99.90;;;;;;8304978;28;20229;-82
2023/03/22 17:41:53;;;;;;;4.30;2.57;;;12.70;99.90;;;;;;8304801;28;20209;-83
2023/03/22 17:45:54;;;;;;;3.80;2.50;;;12.70;99.90;;;;;;8311371;28;20182;-82
2023/03/22 17:49:55;;;;;;;5.53;3.70;;;12.60;99.90;;;;;;8316014;28;20250;-82
2023/03/22 17:53:56;;;;;;;3.90;2.83;;;12.50;99.90;;;;;;8314610;28;20235;-82
2023/03/22 17:57:57;;;;;;;4.67;2.87;;;12.30;99.90;;;;;;8317725;28;20314;-83
2023/03/22 18:01:59;;;;;;;4.73;3.30;;;12.10;99.90;;;;;;8307166;28;20202;-83
2023/03/22 18:06:00;;;;;;;3.73;2.83;;;11.90;99.90;;;;;;8312060;28;20301;-83
2023/03/22 18:10:06;;;;;;;3.80;2.90;;;11.70;99.90;;;;;;8312031;28;20228;-83
2023/03/22 18:14:07;;;;;;;4.17;3.07;;;11.60;99.90;;;;;;8310718;28;20226;-83
2023/03/22 18:18:08;;;;;;;5.30;3.30;;;11.50;99.90;;;;;;8313519;28;20209;-83
2023/03/22 18:22:09;;;;;;;6.67;3.10;;;11.40;99.90;;;;;;8292531;28;20210;-83
2023/03/22 18:26:14;;;;;;;5.17;3.23;;;11.30;99.90;;;;;;8310304;28;20273;-82
2023/03/22 18:30:18;;;;;;;6.80;3.40;;;11.30;99.90;;;;;;8312867;28;20175;-82
2023/03/22 18:34:20;;;;;;;5.13;3.13;;;11.20;1.00;;;;;;8309283;28;20202;-82
2023/03/22 18:38:23;;;;;;;6.63;3.90;;;11.00;1.00;;;;;;8305579;28;20185;-81
2023/03/22 18:42:24;;;;;;;6.13;4.33;;;10.90;1.00;;;;;;8314592;28;20209;-82
2023/03/22 18:46:25;;;;;;;8.37;4.93;;;10.70;1.00;;;;;;8315949;28;20182;-83
2023/03/22 18:50:26;;;;;;;7.43;4.10;;;10.50;1.00;;;;;;8310629;28;20498;-82
2023/03/22 18:54:27;;;;;;;8.90;4.70;;;10.40;1.00;;;;;;8320396;28;20189;-81
2023/03/22 18:58:28;;;;;;;8.10;4.40;;;10.40;1.00;;;;;;8326780;28;20476;-83
2023/03/22 19:02:29;;;;;;;6.20;4.00;;;10.30;1.00;;;;;;8333195;28;20208;-84
2023/03/22 19:06:31;;;;;;;7.77;4.33;;;10.10;1.00;;;;;;8330433;28;20180;-83
2023/03/22 19:10:32;;;;;;;7.43;3.83;;;9.90;4.10;;;;;;8327623;28;20186;-81
2023/03/22 19:14:33;;;;;;;6.53;3.40;;;9.80;58.40;;;;;;8318679;28;20265;-81
2023/03/22 19:18:35;;;;;;;4.90;3.07;;;9.70;99.90;;;;;;8311772;28;20203;-83
2023/03/22 19:22:37;;;;;;;4.87;3.27;;;9.70;99.90;;;;;;8304820;28;20261;-83
2023/03/22 19:26:37;;;;;;;6.83;4.10;;;9.60;99.90;;;;;;8310762;28;20190;-83
2023/03/22 19:30:38;;;;;;;5.93;3.70;;;9.50;99.90;;;;;;8308065;28;20241;-83
2023/03/22 19:34:40;;;;;;;5.30;3.83;;;9.50;99.90;;;;;;8309035;28;20497;-83
2023/03/22 19:38:41;;;;;;;7.77;4.70;;;9.60;99.90;;;;;;8303555;28;20202;-83
2023/03/22 19:42:42;;;;;;;7.93;4.67;;;9.60;99.90;;;;;;8307006;28;20264;-82
2023/03/22 19:46:43;;;;;;;5.67;4.03;;;9.60;99.90;;;;;;8308359;28;20184;-83
2023/03/22 19:50:47;;;;;;;6.77;4.30;;;9.60;99.90;;;;;;8309116;28;20504;-82
2023/03/22 19:54:48;;;;;;;7.57;4.60;;;9.70;99.90;;;;;;8303731;28;20219;-83
2023/03/22 19:58:51;;;;;;;6.70;4.40;;;9.70;99.90;;;;;;8303616;28;20196;-83
2023/03/22 20:02:52;;;;;;;6.97;5.00;;;9.80;99.90;;;;;;8290689;28;20223;-83
2023/03/22 20:06:52;;;;;;;7.97;4.50;;;9.90;69.30;;;;;;8308656;28;20187;-83
2023/03/22 20:10:53;;;;;;;6.17;4.50;;;9.80;40.50;;;;;;8305022;28;20185;-83
2023/03/22 20:14:54;;;;;;;10.93;6.13;;;9.70;54.30;;;;;;8313696;28;20287;-82
2023/03/22 20:18:56;;;;;;;14.97;7.97;;;9.60;99.90;;;;;;8301291;28;20198;-83
2023/03/22 20:22:56;;;;;;;16.70;7.83;;;9.40;99.90;;;;;;8298582;28;20224;-82
2023/03/22 20:26:57;;;;;;;15.57;7.30;;;9.40;99.90;;;;;;8305086;28;20250;-83
2023/03/22 20:31:09;;;;;;;9.90;6.80;;;9.30;99.90;;;;;;8302170;28;20238;-83
2023/03/22 20:35:11;;;;;;;10.80;6.60;;;9.30;99.90;;;;;;8305614;28;20206;-82
2023/03/22 20:39:12;;;;;;;11.03;5.80;;;9.30;99.90;;;;;;8309207;28;20218;-82
2023/03/22 20:43:12;;;;;;;9.10;5.30;;;9.30;99.90;;;;;;8310608;28;20288;-83
2023/03/22 20:47:14;;;;;;;7.87;5.00;;;9.20;99.90;;;;;;8304151;28;20290;-82
2023/03/22 20:51:15;;;;;;;7.33;5.00;;;9.30;99.90;;;;;;8294945;28;20189;-83
2023/03/22 20:55:17;;;;;;;10.17;5.27;;;9.20;99.90;;;;;;8303295;28;20221;-83
2023/03/22 20:59:19;;;;;;;9.47;5.23;;;9.20;99.90;;;;;;8302863;28;20175;-83
2023/03/22 21:03:20;;;;;;;8.00;5.20;;;9.20;99.90;;;;;;8302233;28;20203;-83
2023/03/22 21:07:20;;;;;;;8.83;5.30;;;9.30;99.90;;;;;;8307168;28;20407;-83
2023/03/22 21:11:21;;;;;;;7.57;4.50;;;9.30;99.90;;;;;;8301052;28;20269;-83
2023/03/22 21:15:24;;;;;;;5.47;4.00;;;9.50;99.90;;;;;;8304629;28;20181;-83